Thedford, Canada
Current Conditions -  °F | °C
As of 1:02 PM on Saturday 25 Oct 2014 (Local Time) from CYZR Reporting Station
Broken Clouds Broken Clouds  
Wind Chill: 61°   Ceiling: 2400
Heat Index: 61°   Visibility: 9mi
Dew Point: 50°   Wind: 14mph
Humidity: 68%   Direction: 290°WNW
Pressure: 29.75"   Gusts: 24mph
Location:  43.17°N, 81.85°W
Report Text: CYZR 251702Z AUTO 29012G21KT 9SM BKN024 16/10 A2975 RMK SLP073 DENSITY ALT 1000FT
Loading
Personal Weather Stations






























Interactive Weather Map
Tropical Storm Tracking
New forecast layout! Learn more

10-Day Weather Forecast

Advertisements
Track Severe Weather on mobile